Terminal Aerodrome Forecast
Issued by NWS

Home | Current Version | Previous Version | Text Only | Print | Product List | Glossary On
Versions: 1 2 3 4 5 6 7 8 9 10 11 12 13 14 15 16 17 18
000
FTUS46 KMTR 220534
TAFSJC
TAF
KSJC 220534Z 2206/2306 24005KT P6SM FEW020 FEW030
     FM220900 16005KT P6SM FEW020 SCT030
      TEMPO 2212/2216 BKN030
     FM221700 30003KT P6SM SCT035
     FM222100 30012KT P6SM FEW040
     FM230400 28005KT P6SM SKC=

USA.gov is the U.S. government's official web portal to all federal, state and local government web resources and services.